sensor_id;sensor_type;location;lat;lon;timestamp;P1;durP1;ratioP1;P2;durP2;ratioP2
19605;SDS011;9950;50.168;8.210;2023-06-22T00:02:02;13.82;;;7.43;;
19605;SDS011;9950;50.168;8.210;2023-06-22T00:04:29;12.57;;;9.07;;
19605;SDS011;9950;50.168;8.210;2023-06-22T00:06:56;12.77;;;8.57;;
19605;SDS011;9950;50.168;8.210;2023-06-22T00:09:23;13.05;;;9.15;;
19605;SDS011;9950;50.168;8.210;2023-06-22T00:11:52;12.25;;;8.68;;
19605;SDS011;9950;50.168;8.210;2023-06-22T00:14:19;14.48;;;8.55;;
19605;SDS011;9950;50.168;8.210;2023-06-22T00:16:46;13.23;;;8.07;;
19605;SDS011;9950;50.168;8.210;2023-06-22T00:19:13;11.48;;;7.90;;
19605;SDS011;9950;50.168;8.210;2023-06-22T00:21:41;11.65;;;8.35;;
19605;SDS011;9950;50.168;8.210;2023-06-22T00:24:12;11.57;;;7.70;;
19605;SDS011;9950;50.168;8.210;2023-06-22T00:26:39;12.57;;;8.45;;
19605;SDS011;9950;50.168;8.210;2023-06-22T00:29:07;10.38;;;8.02;;
19605;SDS011;9950;50.168;8.210;2023-06-22T00:31:34;11.73;;;8.48;;
19605;SDS011;9950;50.168;8.210;2023-06-22T00:34:01;13.13;;;8.18;;
19605;SDS011;9950;50.168;8.210;2023-06-22T00:36:28;12.68;;;8.20;;
19605;SDS011;9950;50.168;8.210;2023-06-22T00:38:56;13.05;;;8.50;;
19605;SDS011;9950;50.168;8.210;2023-06-22T00:41:23;11.77;;;9.07;;
19605;SDS011;9950;50.168;8.210;2023-06-22T00:43:53;11.68;;;9.63;;
19605;SDS011;9950;50.168;8.210;2023-06-22T00:46:22;11.48;;;9.27;;
19605;SDS011;9950;50.168;8.210;2023-06-22T00:48:49;12.35;;;8.77;;
19605;SDS011;9950;50.168;8.210;2023-06-22T00:51:17;15.15;;;10.05;;
19605;SDS011;9950;50.168;8.210;2023-06-22T00:53:49;13.38;;;9.20;;
19605;SDS011;9950;50.168;8.210;2023-06-22T00:56:16;14.93;;;9.65;;
19605;SDS011;9950;50.168;8.210;2023-06-22T00:58:49;13.68;;;10.10;;
19605;SDS011;9950;50.168;8.210;2023-06-22T01:01:17;25.10;;;9.95;;
19605;SDS011;9950;50.168;8.210;2023-06-22T01:03:49;17.20;;;9.98;;
19605;SDS011;9950;50.168;8.210;2023-06-22T01:06:19;13.57;;;10.38;;
19605;SDS011;9950;50.168;8.210;2023-06-22T01:08:53;15.40;;;10.80;;
19605;SDS011;9950;50.168;8.210;2023-06-22T01:11:26;17.55;;;10.85;;
19605;SDS011;9950;50.168;8.210;2023-06-22T01:13:56;13.05;;;10.57;;
19605;SDS011;9950;50.168;8.210;2023-06-22T01:16:26;17.10;;;10.85;;
19605;SDS011;9950;50.168;8.210;2023-06-22T01:18:57;15.57;;;11.27;;
19605;SDS011;9950;50.168;8.210;2023-06-22T01:21:25;15.82;;;11.43;;
19605;SDS011;9950;50.168;8.210;2023-06-22T01:23:59;17.45;;;11.35;;
19605;SDS011;9950;50.168;8.210;2023-06-22T01:26:36;15.82;;;11.40;;
19605;SDS011;9950;50.168;8.210;2023-06-22T01:29:06;17.08;;;12.05;;
19605;SDS011;9950;50.168;8.210;2023-06-22T01:31:37;15.68;;;11.90;;
19605;SDS011;9950;50.168;8.210;2023-06-22T01:34:06;16.42;;;11.55;;
19605;SDS011;9950;50.168;8.210;2023-06-22T01:36:34;16.77;;;12.60;;
19605;SDS011;9950;50.168;8.210;2023-06-22T01:39:02;15.23;;;11.90;;
19605;SDS011;9950;50.168;8.210;2023-06-22T01:41:33;15.80;;;11.48;;
19605;SDS011;9950;50.168;8.210;2023-06-22T01:44:01;14.38;;;11.45;;
19605;SDS011;9950;50.168;8.210;2023-06-22T01:46:30;16.85;;;11.93;;
19605;SDS011;9950;50.168;8.210;2023-06-22T01:48:58;16.42;;;11.48;;
19605;SDS011;9950;50.168;8.210;2023-06-22T01:51:25;15.73;;;11.95;;
19605;SDS011;9950;50.168;8.210;2023-06-22T01:53:52;16.00;;;12.45;;
19605;SDS011;9950;50.168;8.210;2023-06-22T01:56:19;17.88;;;12.70;;
19605;SDS011;9950;50.168;8.210;2023-06-22T01:58:49;17.00;;;11.90;;
19605;SDS011;9950;50.168;8.210;2023-06-22T02:01:18;16.50;;;11.70;;
19605;SDS011;9950;50.168;8.210;2023-06-22T02:03:50;16.95;;;12.48;;
19605;SDS011;9950;50.168;8.210;2023-06-22T02:06:20;19.48;;;13.38;;
19605;SDS011;9950;50.168;8.210;2023-06-22T02:08:48;17.35;;;13.73;;
19605;SDS011;9950;50.168;8.210;2023-06-22T02:11:16;17.23;;;13.35;;
19605;SDS011;9950;50.168;8.210;2023-06-22T02:13:45;18.35;;;13.35;;
19605;SDS011;9950;50.168;8.210;2023-06-22T02:16:13;16.55;;;13.57;;
19605;SDS011;9950;50.168;8.210;2023-06-22T02:18:45;21.88;;;13.45;;
19605;SDS011;9950;50.168;8.210;2023-06-22T02:21:13;17.05;;;13.23;;
19605;SDS011;9950;50.168;8.210;2023-06-22T02:23:41;17.90;;;13.63;;
19605;SDS011;9950;50.168;8.210;2023-06-22T02:26:08;18.92;;;13.57;;
19605;SDS011;9950;50.168;8.210;2023-06-22T02:28:35;21.08;;;14.35;;
19605;SDS011;9950;50.168;8.210;2023-06-22T02:31:02;19.13;;;14.57;;
19605;SDS011;9950;50.168;8.210;2023-06-22T02:33:29;18.27;;;14.80;;
19605;SDS011;9950;50.168;8.210;2023-06-22T02:35:56;21.48;;;14.73;;
19605;SDS011;9950;50.168;8.210;2023-06-22T02:38:25;19.20;;;14.45;;
19605;SDS011;9950;50.168;8.210;2023-06-22T02:40:52;21.40;;;14.50;;
19605;SDS011;9950;50.168;8.210;2023-06-22T02:43:19;19.10;;;15.00;;
19605;SDS011;9950;50.168;8.210;2023-06-22T02:45:46;20.30;;;15.07;;
19605;SDS011;9950;50.168;8.210;2023-06-22T02:48:13;19.63;;;15.10;;
19605;SDS011;9950;50.168;8.210;2023-06-22T02:50:41;20.00;;;14.38;;
19605;SDS011;9950;50.168;8.210;2023-06-22T02:53:08;19.38;;;14.85;;
19605;SDS011;9950;50.168;8.210;2023-06-22T02:55:36;20.15;;;15.55;;
19605;SDS011;9950;50.168;8.210;2023-06-22T02:58:04;20.35;;;15.43;;
19605;SDS011;9950;50.168;8.210;2023-06-22T03:00:32;24.33;;;15.82;;
19605;SDS011;9950;50.168;8.210;2023-06-22T03:02:59;21.92;;;15.63;;
19605;SDS011;9950;50.168;8.210;2023-06-22T03:05:26;20.73;;;16.23;;
19605;SDS011;9950;50.168;8.210;2023-06-22T03:07:53;18.77;;;15.57;;
19605;SDS011;9950;50.168;8.210;2023-06-22T03:10:20;19.33;;;15.23;;
19605;SDS011;9950;50.168;8.210;2023-06-22T03:12:49;19.23;;;15.40;;
19605;SDS011;9950;50.168;8.210;2023-06-22T03:15:16;19.58;;;13.77;;
19605;SDS011;9950;50.168;8.210;2023-06-22T03:17:43;21.67;;;14.80;;
19605;SDS011;9950;50.168;8.210;2023-06-22T03:20:12;17.77;;;14.13;;
19605;SDS011;9950;50.168;8.210;2023-06-22T03:22:39;20.42;;;14.32;;
19605;SDS011;9950;50.168;8.210;2023-06-22T03:25:07;16.45;;;13.43;;
19605;SDS011;9950;50.168;8.210;2023-06-22T03:27:37;16.13;;;12.90;;
19605;SDS011;9950;50.168;8.210;2023-06-22T03:30:07;20.55;;;13.45;;
19605;SDS011;9950;50.168;8.210;2023-06-22T03:32:34;17.45;;;13.65;;
19605;SDS011;9950;50.168;8.210;2023-06-22T03:35:02;16.42;;;13.63;;
19605;SDS011;9950;50.168;8.210;2023-06-22T03:37:29;18.35;;;13.35;;
19605;SDS011;9950;50.168;8.210;2023-06-22T03:39:56;20.73;;;15.10;;
19605;SDS011;9950;50.168;8.210;2023-06-22T03:42:23;20.02;;;13.95;;
19605;SDS011;9950;50.168;8.210;2023-06-22T03:44:50;18.00;;;15.23;;
19605;SDS011;9950;50.168;8.210;2023-06-22T03:47:19;23.95;;;16.35;;
19605;SDS011;9950;50.168;8.210;2023-06-22T03:49:46;18.42;;;14.85;;
19605;SDS011;9950;50.168;8.210;2023-06-22T03:52:13;20.02;;;15.43;;
19605;SDS011;9950;50.168;8.210;2023-06-22T03:54:40;14.23;;;12.00;;
19605;SDS011;9950;50.168;8.210;2023-06-22T03:57:07;16.88;;;13.57;;
19605;SDS011;9950;50.168;8.210;2023-06-22T03:59:36;16.33;;;12.45;;
19605;SDS011;9950;50.168;8.210;2023-06-22T04:02:03;21.02;;;13.98;;
19605;SDS011;9950;50.168;8.210;2023-06-22T04:04:32;15.95;;;13.70;;
19605;SDS011;9950;50.168;8.210;2023-06-22T04:07:00;20.58;;;14.98;;
19605;SDS011;9950;50.168;8.210;2023-06-22T04:09:27;22.15;;;16.17;;
19605;SDS011;9950;50.168;8.210;2023-06-22T04:11:54;15.30;;;13.23;;
19605;SDS011;9950;50.168;8.210;2023-06-22T04:14:21;19.73;;;15.23;;
19605;SDS011;9950;50.168;8.210;2023-06-22T04:16:48;17.08;;;15.05;;
19605;SDS011;9950;50.168;8.210;2023-06-22T04:19:16;21.63;;;16.17;;
19605;SDS011;9950;50.168;8.210;2023-06-22T04:21:44;20.48;;;15.23;;
19605;SDS011;9950;50.168;8.210;2023-06-22T04:24:13;17.40;;;14.18;;
19605;SDS011;9950;50.168;8.210;2023-06-22T04:26:40;21.30;;;15.13;;
19605;SDS011;9950;50.168;8.210;2023-06-22T04:29:10;18.70;;;15.20;;
19605;SDS011;9950;50.168;8.210;2023-06-22T04:31:37;17.20;;;14.82;;
19605;SDS011;9950;50.168;8.210;2023-06-22T04:34:04;21.38;;;15.88;;
19605;SDS011;9950;50.168;8.210;2023-06-22T04:36:33;20.20;;;16.77;;
19605;SDS011;9950;50.168;8.210;2023-06-22T04:39:04;19.15;;;14.68;;
19605;SDS011;9950;50.168;8.210;2023-06-22T04:41:32;23.38;;;15.77;;
19605;SDS011;9950;50.168;8.210;2023-06-22T04:44:06;20.92;;;15.65;;
19605;SDS011;9950;50.168;8.210;2023-06-22T04:46:34;20.10;;;15.45;;
19605;SDS011;9950;50.168;8.210;2023-06-22T04:49:03;24.48;;;16.35;;
19605;SDS011;9950;50.168;8.210;2023-06-22T04:51:36;22.88;;;17.10;;
19605;SDS011;9950;50.168;8.210;2023-06-22T04:54:05;27.60;;;16.80;;
19605;SDS011;9950;50.168;8.210;2023-06-22T04:56:32;22.65;;;16.25;;
19605;SDS011;9950;50.168;8.210;2023-06-22T04:59:00;23.27;;;16.23;;
19605;SDS011;9950;50.168;8.210;2023-06-22T05:01:28;24.98;;;16.83;;
19605;SDS011;9950;50.168;8.210;2023-06-22T05:03:56;20.52;;;15.20;;
19605;SDS011;9950;50.168;8.210;2023-06-22T05:06:26;23.23;;;16.73;;
19605;SDS011;9950;50.168;8.210;2023-06-22T05:08:53;27.60;;;17.45;;
19605;SDS011;9950;50.168;8.210;2023-06-22T05:11:24;24.45;;;17.27;;
19605;SDS011;9950;50.168;8.210;2023-06-22T05:13:51;20.48;;;16.38;;
19605;SDS011;9950;50.168;8.210;2023-06-22T05:16:18;27.05;;;16.05;;
19605;SDS011;9950;50.168;8.210;2023-06-22T05:18:48;23.15;;;16.45;;
19605;SDS011;9950;50.168;8.210;2023-06-22T05:21:16;23.67;;;17.35;;
19605;SDS011;9950;50.168;8.210;2023-06-22T05:23:43;22.17;;;18.02;;
19605;SDS011;9950;50.168;8.210;2023-06-22T05:26:10;27.00;;;16.80;;
19605;SDS011;9950;50.168;8.210;2023-06-22T05:28:39;24.90;;;17.13;;
19605;SDS011;9950;50.168;8.210;2023-06-22T05:31:06;21.83;;;17.73;;
19605;SDS011;9950;50.168;8.210;2023-06-22T05:33:33;27.80;;;18.35;;
19605;SDS011;9950;50.168;8.210;2023-06-22T05:36:00;29.80;;;17.90;;
19605;SDS011;9950;50.168;8.210;2023-06-22T05:38:28;22.17;;;17.20;;
19605;SDS011;9950;50.168;8.210;2023-06-22T05:40:56;23.27;;;17.38;;
19605;SDS011;9950;50.168;8.210;2023-06-22T05:43:23;23.75;;;17.85;;
19605;SDS011;9950;50.168;8.210;2023-06-22T05:45:51;25.38;;;18.35;;
19605;SDS011;9950;50.168;8.210;2023-06-22T05:48:18;26.90;;;19.27;;
19605;SDS011;9950;50.168;8.210;2023-06-22T05:50:46;21.30;;;17.88;;
19605;SDS011;9950;50.168;8.210;2023-06-22T05:53:14;25.30;;;17.13;;
19605;SDS011;9950;50.168;8.210;2023-06-22T05:55:41;25.13;;;17.52;;
19605;SDS011;9950;50.168;8.210;2023-06-22T05:58:09;20.35;;;17.17;;
19605;SDS011;9950;50.168;8.210;2023-06-22T06:00:36;20.70;;;16.35;;
19605;SDS011;9950;50.168;8.210;2023-06-22T06:03:04;20.27;;;15.38;;
19605;SDS011;9950;50.168;8.210;2023-06-22T06:05:32;19.23;;;15.82;;
19605;SDS011;9950;50.168;8.210;2023-06-22T06:07:59;15.63;;;13.70;;
19605;SDS011;9950;50.168;8.210;2023-06-22T06:10:26;16.98;;;13.95;;
19605;SDS011;9950;50.168;8.210;2023-06-22T06:12:54;16.45;;;13.40;;
19605;SDS011;9950;50.168;8.210;2023-06-22T06:15:21;17.40;;;13.95;;
19605;SDS011;9950;50.168;8.210;2023-06-22T06:17:49;16.02;;;13.35;;
19605;SDS011;9950;50.168;8.210;2023-06-22T06:20:18;18.35;;;13.35;;
19605;SDS011;9950;50.168;8.210;2023-06-22T06:22:45;17.17;;;12.90;;
19605;SDS011;9950;50.168;8.210;2023-06-22T06:25:13;14.98;;;12.63;;
19605;SDS011;9950;50.168;8.210;2023-06-22T06:27:42;13.57;;;11.98;;
19605;SDS011;9950;50.168;8.210;2023-06-22T06:30:10;14.88;;;12.18;;
19605;SDS011;9950;50.168;8.210;2023-06-22T06:32:37;14.93;;;12.40;;
19605;SDS011;9950;50.168;8.210;2023-06-22T06:35:05;15.05;;;11.90;;
19605;SDS011;9950;50.168;8.210;2023-06-22T06:37:35;14.48;;;11.88;;
19605;SDS011;9950;50.168;8.210;2023-06-22T06:40:02;13.38;;;11.35;;
19605;SDS011;9950;50.168;8.210;2023-06-22T06:42:32;13.80;;;11.38;;
19605;SDS011;9950;50.168;8.210;2023-06-22T06:44:59;13.27;;;11.43;;
19605;SDS011;9950;50.168;8.210;2023-06-22T06:47:26;14.50;;;11.80;;
19605;SDS011;9950;50.168;8.210;2023-06-22T06:49:54;14.90;;;11.63;;
19605;SDS011;9950;50.168;8.210;2023-06-22T06:52:21;13.88;;;11.52;;
19605;SDS011;9950;50.168;8.210;2023-06-22T06:54:50;15.25;;;12.32;;
19605;SDS011;9950;50.168;8.210;2023-06-22T06:57:17;14.50;;;11.32;;
19605;SDS011;9950;50.168;8.210;2023-06-22T06:59:45;13.88;;;11.73;;
19605;SDS011;9950;50.168;8.210;2023-06-22T07:02:12;13.18;;;11.02;;
19605;SDS011;9950;50.168;8.210;2023-06-22T07:04:39;13.32;;;11.55;;
19605;SDS011;9950;50.168;8.210;2023-06-22T07:07:07;13.63;;;11.50;;
19605;SDS011;9950;50.168;8.210;2023-06-22T07:09:34;14.45;;;11.80;;
19605;SDS011;9950;50.168;8.210;2023-06-22T07:12:03;13.20;;;11.50;;
19605;SDS011;9950;50.168;8.210;2023-06-22T07:14:30;14.27;;;11.85;;
19605;SDS011;9950;50.168;8.210;2023-06-22T07:16:57;14.50;;;10.63;;
19605;SDS011;9950;50.168;8.210;2023-06-22T07:19:25;11.90;;;10.60;;
19605;SDS011;9950;50.168;8.210;2023-06-22T07:21:52;13.15;;;11.30;;
19605;SDS011;9950;50.168;8.210;2023-06-22T07:24:19;13.38;;;11.38;;
19605;SDS011;9950;50.168;8.210;2023-06-22T07:26:46;16.15;;;11.43;;
19605;SDS011;9950;50.168;8.210;2023-06-22T07:29:16;14.88;;;11.48;;
19605;SDS011;9950;50.168;8.210;2023-06-22T07:31:43;14.25;;;11.23;;
19605;SDS011;9950;50.168;8.210;2023-06-22T07:34:10;14.07;;;11.80;;
19605;SDS011;9950;50.168;8.210;2023-06-22T07:36:37;13.05;;;11.68;;
19605;SDS011;9950;50.168;8.210;2023-06-22T07:39:05;13.05;;;11.30;;
19605;SDS011;9950;50.168;8.210;2023-06-22T07:41:32;13.65;;;11.75;;
19605;SDS011;9950;50.168;8.210;2023-06-22T07:43:59;12.55;;;10.60;;
19605;SDS011;9950;50.168;8.210;2023-06-22T07:46:28;16.45;;;10.98;;
19605;SDS011;9950;50.168;8.210;2023-06-22T07:48:56;14.48;;;11.15;;
19605;SDS011;9950;50.168;8.210;2023-06-22T07:51:24;12.90;;;10.85;;
19605;SDS011;9950;50.168;8.210;2023-06-22T07:53:51;12.80;;;10.73;;
19605;SDS011;9950;50.168;8.210;2023-06-22T07:56:18;12.30;;;11.00;;
19605;SDS011;9950;50.168;8.210;2023-06-22T07:58:46;11.68;;;9.90;;
19605;SDS011;9950;50.168;8.210;2023-06-22T08:01:13;15.38;;;11.10;;
19605;SDS011;9950;50.168;8.210;2023-06-22T08:03:42;15.10;;;11.10;;
19605;SDS011;9950;50.168;8.210;2023-06-22T08:06:09;13.27;;;10.60;;
19605;SDS011;9950;50.168;8.210;2023-06-22T08:08:36;13.07;;;10.18;;
19605;SDS011;9950;50.168;8.210;2023-06-22T08:11:03;14.02;;;10.70;;
19605;SDS011;9950;50.168;8.210;2023-06-22T08:13:31;12.00;;;10.55;;
19605;SDS011;9950;50.168;8.210;2023-06-22T08:15:58;14.18;;;10.70;;
19605;SDS011;9950;50.168;8.210;2023-06-22T08:18:25;12.32;;;10.32;;
19605;SDS011;9950;50.168;8.210;2023-06-22T08:20:54;12.90;;;9.73;;
19605;SDS011;9950;50.168;8.210;2023-06-22T08:23:21;12.77;;;10.57;;
19605;SDS011;9950;50.168;8.210;2023-06-22T08:25:48;12.02;;;10.68;;
19605;SDS011;9950;50.168;8.210;2023-06-22T08:28:16;12.43;;;9.82;;
19605;SDS011;9950;50.168;8.210;2023-06-22T08:30:43;16.40;;;10.68;;
19605;SDS011;9950;50.168;8.210;2023-06-22T08:33:10;16.15;;;9.73;;
19605;SDS011;9950;50.168;8.210;2023-06-22T08:35:37;12.85;;;9.68;;
19605;SDS011;9950;50.168;8.210;2023-06-22T08:38:06;10.52;;;9.40;;
19605;SDS011;9950;50.168;8.210;2023-06-22T08:40:34;12.15;;;9.75;;
19605;SDS011;9950;50.168;8.210;2023-06-22T08:43:01;11.07;;;9.75;;
19605;SDS011;9950;50.168;8.210;2023-06-22T08:45:28;11.85;;;9.25;;
19605;SDS011;9950;50.168;8.210;2023-06-22T08:47:55;13.00;;;9.80;;
19605;SDS011;9950;50.168;8.210;2023-06-22T08:50:22;11.13;;;9.23;;
19605;SDS011;9950;50.168;8.210;2023-06-22T08:52:49;9.57;;;8.57;;
19605;SDS011;9950;50.168;8.210;2023-06-22T08:55:18;11.30;;;9.10;;
19605;SDS011;9950;50.168;8.210;2023-06-22T08:57:45;10.55;;;8.93;;
19605;SDS011;9950;50.168;8.210;2023-06-22T09:00:13;10.98;;;8.52;;
19605;SDS011;9950;50.168;8.210;2023-06-22T09:02:45;10.70;;;9.60;;
19605;SDS011;9950;50.168;8.210;2023-06-22T09:05:12;11.80;;;9.07;;
19605;SDS011;9950;50.168;8.210;2023-06-22T09:07:39;10.07;;;8.85;;
19605;SDS011;9950;50.168;8.210;2023-06-22T09:10:07;9.88;;;8.88;;
19605;SDS011;9950;50.168;8.210;2023-06-22T09:12:36;11.20;;;8.85;;
19605;SDS011;9950;50.168;8.210;2023-06-22T09:15:03;10.48;;;8.55;;
19605;SDS011;9950;50.168;8.210;2023-06-22T09:17:32;12.15;;;9.15;;
19605;SDS011;9950;50.168;8.210;2023-06-22T09:20:00;9.73;;;8.57;;
19605;SDS011;9950;50.168;8.210;2023-06-22T09:22:30;9.93;;;8.43;;
19605;SDS011;9950;50.168;8.210;2023-06-22T09:24:58;11.55;;;9.32;;
19605;SDS011;9950;50.168;8.210;2023-06-22T09:27:26;9.40;;;8.50;;
19605;SDS011;9950;50.168;8.210;2023-06-22T09:29:55;11.85;;;8.48;;
19605;SDS011;9950;50.168;8.210;2023-06-22T09:32:23;13.85;;;9.00;;
19605;SDS011;9950;50.168;8.210;2023-06-22T09:34:51;10.25;;;8.68;;
19605;SDS011;9950;50.168;8.210;2023-06-22T09:37:19;10.25;;;9.20;;
19605;SDS011;9950;50.168;8.210;2023-06-22T09:39:46;11.07;;;8.63;;
19605;SDS011;9950;50.168;8.210;2023-06-22T09:42:14;10.57;;;8.90;;
19605;SDS011;9950;50.168;8.210;2023-06-22T09:44:41;9.98;;;8.68;;
19605;SDS011;9950;50.168;8.210;2023-06-22T09:47:10;9.75;;;8.23;;
19605;SDS011;9950;50.168;8.210;2023-06-22T09:49:37;12.55;;;9.02;;
19605;SDS011;9950;50.168;8.210;2023-06-22T09:52:05;12.13;;;9.65;;
19605;SDS011;9950;50.168;8.210;2023-06-22T09:54:32;11.85;;;9.13;;
19605;SDS011;9950;50.168;8.210;2023-06-22T09:56:59;11.48;;;9.15;;
19605;SDS011;9950;50.168;8.210;2023-06-22T09:59:27;10.05;;;8.98;;
19605;SDS011;9950;50.168;8.210;2023-06-22T10:01:54;10.35;;;9.07;;
19605;SDS011;9950;50.168;8.210;2023-06-22T10:04:22;11.30;;;9.93;;
19605;SDS011;9950;50.168;8.210;2023-06-22T10:06:50;10.90;;;8.88;;
19605;SDS011;9950;50.168;8.210;2023-06-22T10:09:17;12.57;;;8.98;;
19605;SDS011;9950;50.168;8.210;2023-06-22T10:11:46;13.93;;;9.10;;
19605;SDS011;9950;50.168;8.210;2023-06-22T10:14:13;14.32;;;8.95;;
19605;SDS011;9950;50.168;8.210;2023-06-22T10:16:40;10.85;;;9.30;;
19605;SDS011;9950;50.168;8.210;2023-06-22T10:19:07;10.88;;;9.02;;
19605;SDS011;9950;50.168;8.210;2023-06-22T10:21:36;12.63;;;8.60;;
19605;SDS011;9950;50.168;8.210;2023-06-22T10:24:03;14.32;;;9.25;;
19605;SDS011;9950;50.168;8.210;2023-06-22T10:26:32;10.98;;;9.38;;
19605;SDS011;9950;50.168;8.210;2023-06-22T10:28:59;10.65;;;9.00;;
19605;SDS011;9950;50.168;8.210;2023-06-22T10:31:26;10.52;;;8.98;;
19605;SDS011;9950;50.168;8.210;2023-06-22T10:33:53;10.82;;;9.52;;
19605;SDS011;9950;50.168;8.210;2023-06-22T10:36:20;12.88;;;9.90;;
19605;SDS011;9950;50.168;8.210;2023-06-22T10:38:49;9.57;;;8.57;;
19605;SDS011;9950;50.168;8.210;2023-06-22T10:41:17;10.70;;;9.60;;
19605;SDS011;9950;50.168;8.210;2023-06-22T10:43:44;10.90;;;8.63;;
19605;SDS011;9950;50.168;8.210;2023-06-22T10:46:12;14.15;;;9.25;;
19605;SDS011;9950;50.168;8.210;2023-06-22T10:48:39;10.85;;;9.25;;
19605;SDS011;9950;50.168;8.210;2023-06-22T10:51:06;10.40;;;9.27;;
19605;SDS011;9950;50.168;8.210;2023-06-22T10:53:33;15.38;;;9.63;;
19605;SDS011;9950;50.168;8.210;2023-06-22T10:56:02;11.30;;;10.02;;
19605;SDS011;9950;50.168;8.210;2023-06-22T10:58:29;12.20;;;9.45;;
19605;SDS011;9950;50.168;8.210;2023-06-22T11:00:57;11.18;;;9.98;;
19605;SDS011;9950;50.168;8.210;2023-06-22T11:03:25;12.13;;;10.00;;
19605;SDS011;9950;50.168;8.210;2023-06-22T11:05:52;11.68;;;9.38;;
19605;SDS011;9950;50.168;8.210;2023-06-22T11:08:19;11.68;;;10.20;;
19605;SDS011;9950;50.168;8.210;2023-06-22T11:10:46;12.57;;;9.57;;
19605;SDS011;9950;50.168;8.210;2023-06-22T11:13:15;11.45;;;9.50;;
19605;SDS011;9950;50.168;8.210;2023-06-22T11:15:42;12.85;;;9.85;;
19605;SDS011;9950;50.168;8.210;2023-06-22T11:18:10;11.27;;;10.18;;
19605;SDS011;9950;50.168;8.210;2023-06-22T11:20:37;11.77;;;10.00;;
19605;SDS011;9950;50.168;8.210;2023-06-22T11:23:05;10.98;;;9.43;;
19605;SDS011;9950;50.168;8.210;2023-06-22T11:25:33;12.57;;;9.27;;
19605;SDS011;9950;50.168;8.210;2023-06-22T11:28:01;11.02;;;8.95;;
19605;SDS011;9950;50.168;8.210;2023-06-22T11:30:30;13.32;;;8.98;;
19605;SDS011;9950;50.168;8.210;2023-06-22T11:32:58;12.70;;;8.95;;
19605;SDS011;9950;50.168;8.210;2023-06-22T11:35:25;11.70;;;8.80;;
19605;SDS011;9950;50.168;8.210;2023-06-22T11:37:52;11.18;;;8.73;;
19605;SDS011;9950;50.168;8.210;2023-06-22T11:40:21;11.50;;;9.38;;
19605;SDS011;9950;50.168;8.210;2023-06-22T11:42:48;14.35;;;9.52;;
19605;SDS011;9950;50.168;8.210;2023-06-22T11:45:15;9.52;;;8.35;;
19605;SDS011;9950;50.168;8.210;2023-06-22T11:47:45;9.85;;;8.50;;
19605;SDS011;9950;50.168;8.210;2023-06-22T11:50:12;8.63;;;7.70;;
19605;SDS011;9950;50.168;8.210;2023-06-22T11:52:39;9.85;;;7.88;;
19605;SDS011;9950;50.168;8.210;2023-06-22T11:55:07;11.85;;;8.10;;
19605;SDS011;9950;50.168;8.210;2023-06-22T11:57:35;11.25;;;8.07;;
19605;SDS011;9950;50.168;8.210;2023-06-22T12:00:02;11.60;;;8.18;;
19605;SDS011;9950;50.168;8.210;2023-06-22T12:02:38;10.68;;;7.80;;
19605;SDS011;9950;50.168;8.210;2023-06-22T12:05:07;10.80;;;8.25;;
19605;SDS011;9950;50.168;8.210;2023-06-22T12:07:34;9.05;;;7.78;;
19605;SDS011;9950;50.168;8.210;2023-06-22T12:10:02;10.23;;;8.10;;
19605;SDS011;9950;50.168;8.210;2023-06-22T12:12:30;11.70;;;8.45;;
19605;SDS011;9950;50.168;8.210;2023-06-22T12:14:57;9.23;;;8.20;;
19605;SDS011;9950;50.168;8.210;2023-06-22T12:17:28;10.38;;;8.45;;
19605;SDS011;9950;50.168;8.210;2023-06-22T12:19:55;8.77;;;7.50;;
19605;SDS011;9950;50.168;8.210;2023-06-22T12:22:23;8.80;;;7.53;;
19605;SDS011;9950;50.168;8.210;2023-06-22T12:24:51;10.25;;;7.68;;
19605;SDS011;9950;50.168;8.210;2023-06-22T12:27:18;10.50;;;8.27;;
19605;SDS011;9950;50.168;8.210;2023-06-22T12:29:45;9.18;;;7.03;;
19605;SDS011;9950;50.168;8.210;2023-06-22T12:32:13;11.07;;;6.57;;
19605;SDS011;9950;50.168;8.210;2023-06-22T12:34:41;11.82;;;7.53;;
19605;SDS011;9950;50.168;8.210;2023-06-22T12:37:08;13.63;;;7.60;;
19605;SDS011;9950;50.168;8.210;2023-06-22T12:39:37;12.57;;;7.45;;
19605;SDS011;9950;50.168;8.210;2023-06-22T12:42:05;9.32;;;6.68;;
19605;SDS011;9950;50.168;8.210;2023-06-22T12:44:33;11.02;;;7.22;;
19605;SDS011;9950;50.168;8.210;2023-06-22T12:47:00;12.40;;;7.38;;
19605;SDS011;9950;50.168;8.210;2023-06-22T12:49:28;13.57;;;7.20;;
19605;SDS011;9950;50.168;8.210;2023-06-22T12:51:55;11.25;;;7.18;;
19605;SDS011;9950;50.168;8.210;2023-06-22T12:54:22;9.93;;;7.35;;
19605;SDS011;9950;50.168;8.210;2023-06-22T12:56:51;12.02;;;7.15;;
19605;SDS011;9950;50.168;8.210;2023-06-22T12:59:18;10.35;;;7.28;;
19605;SDS011;9950;50.168;8.210;2023-06-22T13:01:45;11.13;;;7.53;;
19605;SDS011;9950;50.168;8.210;2023-06-22T13:04:12;10.35;;;7.75;;
19605;SDS011;9950;50.168;8.210;2023-06-22T13:06:40;13.10;;;7.95;;
19605;SDS011;9950;50.168;8.210;2023-06-22T13:09:07;12.55;;;7.35;;
19605;SDS011;9950;50.168;8.210;2023-06-22T13:11:34;10.55;;;7.18;;
19605;SDS011;9950;50.168;8.210;2023-06-22T13:14:03;11.75;;;7.50;;
19605;SDS011;9950;50.168;8.210;2023-06-22T13:16:30;9.88;;;7.20;;
19605;SDS011;9950;50.168;8.210;2023-06-22T13:18:58;10.55;;;7.40;;
19605;SDS011;9950;50.168;8.210;2023-06-22T13:21:25;11.32;;;7.47;;
19605;SDS011;9950;50.168;8.210;2023-06-22T13:23:52;10.10;;;6.97;;
19605;SDS011;9950;50.168;8.210;2023-06-22T13:26:20;13.23;;;8.00;;
19605;SDS011;9950;50.168;8.210;2023-06-22T13:28:47;14.57;;;8.20;;
19605;SDS011;9950;50.168;8.210;2023-06-22T13:31:16;13.63;;;7.82;;
19605;SDS011;9950;50.168;8.210;2023-06-22T13:33:43;10.77;;;7.90;;
19605;SDS011;9950;50.168;8.210;2023-06-22T13:36:12;11.00;;;7.63;;
19605;SDS011;9950;50.168;8.210;2023-06-22T13:38:40;12.40;;;7.13;;
19605;SDS011;9950;50.168;8.210;2023-06-22T13:41:07;13.30;;;7.82;;
19605;SDS011;9950;50.168;8.210;2023-06-22T13:43:34;12.55;;;7.78;;
19605;SDS011;9950;50.168;8.210;2023-06-22T13:46:01;11.13;;;7.07;;
19605;SDS011;9950;50.168;8.210;2023-06-22T13:48:30;16.08;;;8.40;;
19605;SDS011;9950;50.168;8.210;2023-06-22T13:50:57;12.70;;;7.32;;
19605;SDS011;9950;50.168;8.210;2023-06-22T13:53:24;10.15;;;7.22;;
19605;SDS011;9950;50.168;8.210;2023-06-22T13:55:52;9.88;;;7.25;;
19605;SDS011;9950;50.168;8.210;2023-06-22T13:58:19;11.60;;;8.20;;
19605;SDS011;9950;50.168;8.210;2023-06-22T14:00:46;12.38;;;8.25;;
19605;SDS011;9950;50.168;8.210;2023-06-22T14:03:14;11.85;;;8.02;;
19605;SDS011;9950;50.168;8.210;2023-06-22T14:05:43;12.00;;;8.48;;
19605;SDS011;9950;50.168;8.210;2023-06-22T14:08:11;16.10;;;9.30;;
19605;SDS011;9950;50.168;8.210;2023-06-22T14:10:40;10.38;;;9.00;;
19605;SDS011;9950;50.168;8.210;2023-06-22T14:13:07;13.85;;;8.45;;
19605;SDS011;9950;50.168;8.210;2023-06-22T14:15:34;12.70;;;8.95;;
19605;SDS011;9950;50.168;8.210;2023-06-22T14:18:01;10.63;;;8.55;;
19605;SDS011;9950;50.168;8.210;2023-06-22T14:20:29;12.93;;;9.15;;
19605;SDS011;9950;50.168;8.210;2023-06-22T14:22:57;12.10;;;8.63;;
19605;SDS011;9950;50.168;8.210;2023-06-22T14:25:24;11.50;;;8.82;;
19605;SDS011;9950;50.168;8.210;2023-06-22T14:27:51;12.60;;;8.93;;
19605;SDS011;9950;50.168;8.210;2023-06-22T14:30:19;15.88;;;9.13;;
19605;SDS011;9950;50.168;8.210;2023-06-22T14:32:46;10.82;;;8.23;;
19605;SDS011;9950;50.168;8.210;2023-06-22T14:35:13;8.45;;;6.70;;
19605;SDS011;9950;50.168;8.210;2023-06-22T14:37:40;10.20;;;7.15;;
19605;SDS011;9950;50.168;8.210;2023-06-22T14:40:09;14.25;;;6.25;;
19605;SDS011;9950;50.168;8.210;2023-06-22T14:42:37;11.20;;;6.80;;
19605;SDS011;9950;50.168;8.210;2023-06-22T14:45:05;13.07;;;6.00;;